Time;durP1;ratioP1;P1;durP2;ratioP2;P2;SDS_P1;SDS_P2;PMS_P1;PMS_P2;Temp;Humidity;BMP_temperature;BMP_pressure;BME280_temperature;BME280_humidity;BME280_pressure;Samples;Min_cycle;Max_cycle;Signal;HPM_P1;HPM_P2
2021/12/29 00:00:10;;;;;;;0.00;0.00;;;-0.30;66.90;;;;;;4978577;28;20054;-83
2021/12/29 00:02:36;;;;;;;0.00;0.00;;;-0.30;66.70;;;;;;4995658;28;20458;-82
2021/12/29 00:05:01;;;;;;;0.00;0.00;;;-0.30;66.60;;;;;;4995150;28;20037;-83
2021/12/29 00:07:27;;;;;;;0.00;0.00;;;-0.20;66.50;;;;;;4978142;28;20022;-81
2021/12/29 00:09:55;;;;;;;0.00;0.00;;;-0.20;66.30;;;;;;4995795;28;20026;-81
2021/12/29 00:12:25;;;;;;;0.00;0.00;;;-0.20;66.20;;;;;;4978179;28;20034;-81
2021/12/29 00:14:52;;;;;;;0.10;0.00;;;-0.30;66.30;;;;;;4995391;28;20037;-81
2021/12/29 00:17:18;;;;;;;0.00;0.00;;;-0.30;66.30;;;;;;4978322;28;20026;-82
2021/12/29 00:19:43;;;;;;;0.05;0.00;;;-0.30;66.20;;;;;;4995579;28;20061;-82
2021/12/29 00:22:09;;;;;;;0.00;0.00;;;-0.30;67.10;;;;;;4996524;28;20347;-83
2021/12/29 00:24:35;;;;;;;0.00;0.00;;;-0.20;67.00;;;;;;4995762;28;20385;-82
2021/12/29 00:27:04;;;;;;;0.00;0.00;;;-0.20;66.40;;;;;;4995832;28;20455;-82
2021/12/29 00:29:31;;;;;;;0.00;0.00;;;-0.20;66.20;;;;;;4995919;28;20104;-82
2021/12/29 00:31:57;;;;;;;0.00;0.00;;;-0.20;66.10;;;;;;4978326;28;20022;-83
2021/12/29 00:34:23;;;;;;;0.00;0.00;;;-0.20;66.00;;;;;;4995270;28;20481;-82
2021/12/29 00:36:48;;;;;;;0.00;0.00;;;-0.20;66.00;;;;;;4995322;28;20026;-82
2021/12/29 00:39:14;;;;;;;0.00;0.00;;;-0.20;65.90;;;;;;4994929;28;20101;-82
2021/12/29 00:41:40;;;;;;;0.00;0.00;;;-0.20;66.00;;;;;;4995691;28;20038;-82
2021/12/29 00:44:09;;;;;;;0.00;0.00;;;-0.20;66.10;;;;;;4977860;28;20030;-81
2021/12/29 00:46:39;;;;;;;0.00;0.00;;;-0.20;66.10;;;;;;4977993;28;20077;-82
2021/12/29 00:49:05;;;;;;;0.00;0.00;;;-0.20;66.00;;;;;;4978368;28;20525;-81
2021/12/29 00:51:31;;;;;;;0.00;0.00;;;-0.20;66.10;;;;;;4995075;28;20031;-83
2021/12/29 00:53:58;;;;;;;0.00;0.00;;;-0.10;66.10;;;;;;4978276;28;20535;-82
2021/12/29 00:56:23;;;;;;;0.00;0.00;;;-0.10;66.10;;;;;;4994467;28;20062;-83
2021/12/29 00:58:49;;;;;;;0.00;0.00;;;-0.10;66.00;;;;;;4995039;28;20048;-81
2021/12/29 01:01:15;;;;;;;0.00;0.00;;;0.00;65.90;;;;;;4994885;28;20042;-82
2021/12/29 01:03:43;;;;;;;0.00;0.00;;;0.00;65.80;;;;;;4977642;28;20041;-81
2021/12/29 01:06:10;;;;;;;0.00;0.00;;;0.00;65.70;;;;;;4977597;28;20026;-84
2021/12/29 01:08:36;;;;;;;0.00;0.00;;;-0.10;65.70;;;;;;4995099;28;20030;-82
2021/12/29 01:11:03;;;;;;;0.00;0.00;;;-0.10;65.80;;;;;;4977142;28;20431;-81
2021/12/29 01:13:31;;;;;;;0.00;0.00;;;-0.10;65.90;;;;;;4995286;28;20393;-81
2021/12/29 01:16:16;;;;;;;0.00;0.00;;;-0.10;65.80;;;;;;4978151;28;20026;-82
2021/12/29 01:18:45;;;;;;;0.00;0.00;;;0.00;65.90;;;;;;4982012;28;20026;-83
2021/12/29 01:21:12;;;;;;;0.00;0.00;;;0.00;65.90;;;;;;4999087;28;20049;-83
2021/12/29 01:23:38;;;;;;;0.00;0.00;;;0.10;65.90;;;;;;4999904;28;20113;-83
2021/12/29 01:26:04;;;;;;;0.00;0.00;;;0.10;65.80;;;;;;4998950;28;20029;-82
2021/12/29 01:28:29;;;;;;;0.00;0.00;;;0.10;65.70;;;;;;4981389;28;20457;-82
2021/12/29 01:30:56;;;;;;;0.00;0.00;;;0.10;65.70;;;;;;4999530;28;20355;-82
2021/12/29 01:33:22;;;;;;;0.00;0.00;;;0.10;65.60;;;;;;4998941;28;20030;-82
2021/12/29 01:35:48;;;;;;;0.00;0.00;;;0.10;65.60;;;;;;4981402;28;20034;-81
2021/12/29 01:38:14;;;;;;;0.00;0.00;;;0.10;65.60;;;;;;4998467;28;20076;-82
2021/12/29 01:40:40;;;;;;;0.00;0.00;;;0.00;65.70;;;;;;4998305;28;20030;-82
2021/12/29 01:43:08;;;;;;;0.00;0.00;;;0.00;65.60;;;;;;4998701;28;20030;-81
2021/12/29 01:45:35;;;;;;;0.00;0.00;;;0.00;65.70;;;;;;4981348;28;20023;-82
2021/12/29 01:48:03;;;;;;;0.00;0.00;;;0.00;65.60;;;;;;4999747;28;20382;-82
2021/12/29 01:50:31;;;;;;;0.00;0.00;;;0.00;65.70;;;;;;4965825;28;20541;-80
2021/12/29 01:53:02;;;;;;;0.00;0.00;;;0.00;65.60;;;;;;4981396;28;20480;-83
2021/12/29 01:55:30;;;;;;;0.00;0.00;;;-0.10;65.70;;;;;;4997969;28;20073;-81
2021/12/29 01:57:57;;;;;;;0.00;0.00;;;-0.10;65.50;;;;;;4998328;28;20050;-81
2021/12/29 02:00:25;;;;;;;0.08;0.00;;;-0.10;65.70;;;;;;4998073;28;20033;-83
2021/12/29 02:02:50;;;;;;;0.00;0.00;;;-0.20;65.80;;;;;;4998904;28;20038;-83
2021/12/29 02:05:17;;;;;;;0.00;0.00;;;-0.10;66.00;;;;;;4998022;28;20465;-82
2021/12/29 02:07:43;;;;;;;0.00;0.00;;;-0.10;65.80;;;;;;4998274;28;20081;-82
2021/12/29 02:10:12;;;;;;;0.00;0.00;;;-0.10;65.80;;;;;;4998570;28;20039;-81
2021/12/29 02:12:40;;;;;;;0.00;0.00;;;-0.10;65.70;;;;;;4998085;28;20113;-83
2021/12/29 02:15:07;;;;;;;0.00;0.00;;;-0.10;65.70;;;;;;4997538;28;20038;-82
2021/12/29 02:17:33;;;;;;;0.00;0.00;;;-0.10;65.90;;;;;;4997877;28;20084;-83
2021/12/29 02:20:05;;;;;;;0.00;0.00;;;-0.10;66.00;;;;;;4998158;28;20113;-81
2021/12/29 02:22:40;;;;;;;0.00;0.00;;;0.00;65.90;;;;;;4997666;28;20053;-83
2021/12/29 02:27:50;;;;;;;0.00;0.00;;;0.00;65.70;;;;;;4996745;28;20028;-82
2021/12/29 02:30:18;;;;;;;0.00;0.00;;;0.00;65.70;;;;;;4997514;28;20047;-82
2021/12/29 02:32:44;;;;;;;0.00;0.00;;;0.00;65.70;;;;;;4980543;28;20027;-82
2021/12/29 02:35:12;;;;;;;0.00;0.00;;;0.10;65.90;;;;;;4997183;28;20421;-82
2021/12/29 02:37:38;;;;;;;0.00;0.00;;;0.10;65.80;;;;;;4997989;28;20139;-81
2021/12/29 02:40:05;;;;;;;0.00;0.00;;;0.10;65.50;;;;;;4980053;28;20117;-81
2021/12/29 02:42:38;;;;;;;0.00;0.00;;;0.10;65.70;;;;;;4980291;28;20030;-82
2021/12/29 02:45:06;;;;;;;0.00;0.00;;;0.10;65.80;;;;;;4980230;28;20050;-83
2021/12/29 02:47:32;;;;;;;0.00;0.00;;;0.10;65.80;;;;;;4997517;28;20034;-80
2021/12/29 02:49:58;;;;;;;0.00;0.00;;;0.10;65.90;;;;;;4997332;28;20031;-83
2021/12/29 02:52:24;;;;;;;0.00;0.00;;;0.10;65.80;;;;;;4979914;28;20049;-83
2021/12/29 02:54:51;;;;;;;0.00;0.00;;;0.10;65.80;;;;;;4997539;28;20031;-82
2021/12/29 02:57:17;;;;;;;0.00;0.00;;;0.10;65.90;;;;;;4997076;28;20046;-82
2021/12/29 02:59:43;;;;;;;0.00;0.00;;;0.10;66.00;;;;;;4997471;28;20089;-84
2021/12/29 03:02:09;;;;;;;0.00;0.00;;;0.20;66.00;;;;;;4980124;28;20026;-83
2021/12/29 03:04:35;;;;;;;0.00;0.00;;;0.20;66.10;;;;;;4997334;28;20394;-83
2021/12/29 03:07:01;;;;;;;0.00;0.00;;;0.20;66.00;;;;;;4997573;28;20169;-82
2021/12/29 03:09:27;;;;;;;0.00;0.00;;;0.30;66.00;;;;;;4963626;28;20041;-82
2021/12/29 03:11:52;;;;;;;0.00;0.00;;;0.30;65.90;;;;;;4996753;28;20033;-81
2021/12/29 03:14:20;;;;;;;0.00;0.00;;;0.30;65.90;;;;;;4979675;28;20398;-83
2021/12/29 03:16:46;;;;;;;0.00;0.00;;;0.30;66.00;;;;;;4997749;28;20026;-82
2021/12/29 03:19:12;;;;;;;0.00;0.00;;;0.30;66.00;;;;;;4997213;28;20459;-84
2021/12/29 03:21:38;;;;;;;0.00;0.00;;;0.30;66.00;;;;;;4998685;28;20031;-83
2021/12/29 03:24:05;;;;;;;0.00;0.00;;;0.40;66.10;;;;;;4998306;28;20034;-83
2021/12/29 03:26:32;;;;;;;0.00;0.00;;;0.40;66.70;;;;;;4996555;28;20484;-81
2021/12/29 03:28:58;;;;;;;0.00;0.00;;;0.40;65.80;;;;;;4996921;28;20034;-82
2021/12/29 03:31:24;;;;;;;0.00;0.00;;;0.40;65.90;;;;;;4996703;28;20065;-84
2021/12/29 03:33:51;;;;;;;0.00;0.00;;;0.40;65.90;;;;;;4996477;28;20101;-82
2021/12/29 03:36:18;;;;;;;0.00;0.00;;;0.40;65.90;;;;;;4979290;28;20038;-83
2021/12/29 03:38:45;;;;;;;0.00;0.00;;;0.40;65.90;;;;;;4996797;28;20034;-82
2021/12/29 03:41:14;;;;;;;0.00;0.00;;;0.50;65.80;;;;;;4997254;28;20030;-83
2021/12/29 03:43:42;;;;;;;0.00;0.00;;;0.40;65.80;;;;;;4996075;28;20022;-83
2021/12/29 03:46:09;;;;;;;0.00;0.00;;;0.40;65.90;;;;;;4996662;28;20026;-82
2021/12/29 03:48:37;;;;;;;0.00;0.00;;;0.40;65.70;;;;;;4995707;28;20033;-82
2021/12/29 03:51:04;;;;;;;0.00;0.00;;;0.40;65.70;;;;;;4978608;28;20028;-83
2021/12/29 03:53:30;;;;;;;0.00;0.00;;;0.40;65.80;;;;;;4995964;28;20022;-82
2021/12/29 03:55:56;;;;;;;0.00;0.00;;;0.40;66.00;;;;;;4996419;28;20081;-83
2021/12/29 03:58:24;;;;;;;0.45;0.00;;;0.40;65.90;;;;;;4978845;28;20454;-84
2021/12/29 04:00:55;;;;;;;0.00;0.00;;;0.40;66.00;;;;;;4996399;28;20358;-83
2021/12/29 04:03:21;;;;;;;0.00;0.00;;;0.40;66.00;;;;;;4995932;28;20030;-85
2021/12/29 04:05:47;;;;;;;0.00;0.00;;;0.40;66.00;;;;;;4978676;28;20081;-83
2021/12/29 04:08:13;;;;;;;0.00;0.00;;;0.40;66.10;;;;;;4995773;28;20023;-84
2021/12/29 04:10:39;;;;;;;0.00;0.00;;;0.50;66.10;;;;;;4995693;28;20034;-83
2021/12/29 04:13:04;;;;;;;0.00;0.00;;;0.50;66.10;;;;;;4996045;28;20101;-82
2021/12/29 04:15:30;;;;;;;0.00;0.00;;;0.50;66.00;;;;;;4995669;28;20034;-82
2021/12/29 04:17:58;;;;;;;0.00;0.00;;;0.60;66.00;;;;;;4995255;28;20026;-83
2021/12/29 04:23:13;;;;;;;0.00;0.00;;;0.60;65.90;;;;;;4996463;28;20493;-82
2021/12/29 04:25:40;;;;;;;0.00;0.00;;;0.60;65.80;;;;;;4995810;28;20037;-83
2021/12/29 04:28:10;;;;;;;0.00;0.00;;;0.60;65.60;;;;;;4978792;28;20061;-82
2021/12/29 04:30:36;;;;;;;0.00;0.00;;;0.50;65.60;;;;;;4996017;28;20113;-81
2021/12/29 04:33:03;;;;;;;0.00;0.00;;;0.50;65.70;;;;;;4995965;28;20529;-83
2021/12/29 04:35:29;;;;;;;0.00;0.00;;;0.50;65.80;;;;;;4978242;28;20499;-82
2021/12/29 04:37:54;;;;;;;0.00;0.00;;;0.50;65.80;;;;;;4978707;28;20031;-82
2021/12/29 04:40:20;;;;;;;0.00;0.00;;;0.60;65.90;;;;;;4995662;28;20038;-81
2021/12/29 04:42:47;;;;;;;0.00;0.00;;;0.60;65.80;;;;;;4995283;28;20124;-82
2021/12/29 04:45:13;;;;;;;0.00;0.00;;;0.60;65.80;;;;;;4962566;28;20058;-82
2021/12/29 04:47:43;;;;;;;0.10;0.10;;;0.60;65.90;;;;;;4978546;28;20033;-81
2021/12/29 04:50:50;;;;;;;0.08;0.00;;;0.60;65.90;;;;;;4994826;28;20031;-83
2021/12/29 04:53:05;;;;;;;0.00;0.00;;;0.60;65.80;;;;;;4993273;28;20049;-80
2021/12/29 04:55:31;;;;;;;0.00;0.00;;;0.60;65.70;;;;;;4995294;28;20467;-82
2021/12/29 04:57:58;;;;;;;0.00;0.00;;;0.60;65.60;;;;;;4995010;28;20026;-81
2021/12/29 05:00:26;;;;;;;0.00;0.00;;;0.50;65.50;;;;;;4994870;28;20030;-81
2021/12/29 05:02:53;;;;;;;0.00;0.00;;;0.50;65.60;;;;;;4995006;28;20030;-82
2021/12/29 05:05:27;;;;;;;0.00;0.00;;;0.50;65.80;;;;;;4974017;28;20384;-82
2021/12/29 05:10:37;;;;;;;0.00;0.00;;;0.50;65.80;;;;;;4975145;28;20498;-82
2021/12/29 05:13:03;;;;;;;0.00;0.00;;;0.50;65.90;;;;;;4973886;28;20027;-83
2021/12/29 05:15:30;;;;;;;0.00;0.00;;;0.60;65.90;;;;;;4973774;28;20065;-82
2021/12/29 05:17:58;;;;;;;0.00;0.00;;;0.60;65.80;;;;;;4975646;28;20085;-82
2021/12/29 05:20:26;;;;;;;0.00;0.00;;;0.60;65.60;;;;;;4975222;28;20038;-83
2021/12/29 05:22:52;;;;;;;0.00;0.00;;;0.50;65.60;;;;;;4975349;28;20026;-82
2021/12/29 05:25:18;;;;;;;0.00;0.00;;;0.50;65.70;;;;;;4989520;28;20466;-82
2021/12/29 05:27:47;;;;;;;0.00;0.00;;;0.50;65.80;;;;;;4994563;28;20027;-83
2021/12/29 05:30:13;;;;;;;0.00;0.00;;;0.60;66.40;;;;;;4993993;28;20425;-82
2021/12/29 05:32:39;;;;;;;0.00;0.00;;;0.60;65.80;;;;;;4994027;28;20113;-80
2021/12/29 05:35:05;;;;;;;0.00;0.00;;;0.60;65.70;;;;;;4976714;28;20035;-83
2021/12/29 05:37:31;;;;;;;0.00;0.00;;;0.60;65.60;;;;;;4994202;28;20124;-81
2021/12/29 05:39:57;;;;;;;0.00;0.00;;;0.60;65.60;;;;;;4993642;28;20367;-84
2021/12/29 05:42:23;;;;;;;0.00;0.00;;;0.60;65.50;;;;;;4994617;28;20076;-83
2021/12/29 05:44:49;;;;;;;0.00;0.00;;;0.60;65.40;;;;;;4977297;28;20102;-83
2021/12/29 05:47:15;;;;;;;0.00;0.00;;;0.50;65.40;;;;;;4994501;28;20136;-84
2021/12/29 05:49:42;;;;;;;0.00;0.00;;;0.50;65.50;;;;;;4993982;28;20477;-84
2021/12/29 05:52:10;;;;;;;0.00;0.00;;;0.60;65.50;;;;;;4985698;28;20038;-82
2021/12/29 05:54:36;;;;;;;0.00;0.00;;;0.60;65.50;;;;;;4984168;28;20046;-84
2021/12/29 05:57:02;;;;;;;0.00;0.00;;;0.60;65.50;;;;;;4981335;28;20521;-82
2021/12/29 05:59:29;;;;;;;0.00;0.00;;;0.60;65.40;;;;;;4957414;28;20054;-83
2021/12/29 06:01:55;;;;;;;0.00;0.00;;;0.70;65.60;;;;;;4974812;28;20035;-81
2021/12/29 06:04:20;;;;;;;0.00;0.00;;;0.70;65.60;;;;;;4978235;28;20031;-83
2021/12/29 06:06:46;;;;;;;0.00;0.00;;;0.70;65.50;;;;;;4978413;28;20031;-81
2021/12/29 06:09:14;;;;;;;0.00;0.00;;;0.70;65.40;;;;;;4977975;28;20113;-83
2021/12/29 06:11:40;;;;;;;0.00;0.00;;;0.70;65.40;;;;;;4977174;28;20027;-82
2021/12/29 06:14:07;;;;;;;0.00;0.00;;;0.70;65.40;;;;;;4977052;28;20026;-83
2021/12/29 06:16:33;;;;;;;0.00;0.00;;;0.70;65.30;;;;;;4977649;28;20070;-82
2021/12/29 06:18:59;;;;;;;0.00;0.00;;;0.80;65.30;;;;;;4976962;28;20061;-84
2021/12/29 06:21:27;;;;;;;0.00;0.00;;;0.80;65.30;;;;;;4978376;28;20058;-83
2021/12/29 06:23:53;;;;;;;0.00;0.00;;;0.80;65.30;;;;;;4978729;28;20058;-82
2021/12/29 06:26:18;;;;;;;0.00;0.00;;;0.80;65.30;;;;;;4979098;28;20038;-83
2021/12/29 06:28:46;;;;;;;0.00;0.00;;;0.80;65.20;;;;;;4981457;28;20022;-80
2021/12/29 06:31:14;;;;;;;0.00;0.00;;;0.80;65.20;;;;;;4980583;28;20031;-82
2021/12/29 06:33:40;;;;;;;0.00;0.00;;;0.80;65.00;;;;;;4979191;28;20513;-84
2021/12/29 06:36:07;;;;;;;0.00;0.00;;;0.80;65.00;;;;;;4978380;28;20030;-83
2021/12/29 06:38:34;;;;;;;0.00;0.00;;;0.80;65.00;;;;;;4978177;28;20030;-82
2021/12/29 06:41:01;;;;;;;0.00;0.00;;;0.80;65.00;;;;;;4978095;28;20031;-84
2021/12/29 06:43:27;;;;;;;0.00;0.00;;;0.90;65.10;;;;;;4978088;28;20035;-85
2021/12/29 06:45:55;;;;;;;0.00;0.00;;;0.90;64.90;;;;;;4977000;28;20031;-84
2021/12/29 06:48:21;;;;;;;0.00;0.00;;;0.90;64.80;;;;;;4977815;28;20162;-84
2021/12/29 06:50:47;;;;;;;0.00;0.00;;;0.90;64.80;;;;;;4977450;28;20471;-84
2021/12/29 06:53:12;;;;;;;0.00;0.00;;;0.80;64.90;;;;;;4976842;28;20034;-84
2021/12/29 06:55:39;;;;;;;0.00;0.00;;;0.80;64.90;;;;;;4977323;28;20050;-83
2021/12/29 06:58:06;;;;;;;0.00;0.00;;;0.80;64.90;;;;;;4977414;28;20498;-84
2021/12/29 07:00:33;;;;;;;0.00;0.00;;;0.90;65.00;;;;;;4976484;28;20044;-85
2021/12/29 07:02:59;;;;;;;0.00;0.00;;;0.90;64.80;;;;;;4977444;28;20487;-82
2021/12/29 07:05:25;;;;;;;0.03;0.03;;;0.90;64.70;;;;;;4976668;28;20031;-82
2021/12/29 07:07:54;;;;;;;0.00;0.00;;;1.00;64.70;;;;;;4977124;28;20062;-83
2021/12/29 07:10:21;;;;;;;0.00;0.00;;;1.00;64.80;;;;;;4976418;28;20038;-83
2021/12/29 07:12:47;;;;;;;0.00;0.00;;;1.00;64.50;;;;;;4975644;28;20023;-83
2021/12/29 07:15:13;;;;;;;0.00;0.00;;;1.00;64.50;;;;;;4976559;28;20490;-85
2021/12/29 07:17:44;;;;;;;0.00;0.00;;;1.00;64.50;;;;;;4975838;28;20027;-85
2021/12/29 07:20:10;;;;;;;0.00;0.00;;;1.00;64.50;;;;;;4971846;28;20168;-86
2021/12/29 07:22:36;;;;;;;0.00;0.00;;;1.00;64.40;;;;;;4992583;28;20046;-85
2021/12/29 07:25:03;;;;;;;0.00;0.00;;;1.00;64.40;;;;;;4986305;28;20038;-82
2021/12/29 07:27:31;;;;;;;0.00;0.00;;;1.10;64.50;;;;;;4995894;28;20069;-85
2021/12/29 07:29:59;;;;;;;0.00;0.00;;;1.10;64.50;;;;;;4992077;28;20030;-85
2021/12/29 07:32:26;;;;;;;0.00;0.00;;;1.10;64.50;;;;;;4986013;28;20430;-84
2021/12/29 07:34:52;;;;;;;0.05;0.05;;;1.20;64.50;;;;;;4986738;28;20034;-86
2021/12/29 07:37:18;;;;;;;0.00;0.00;;;1.20;64.40;;;;;;4955665;28;20065;-87
2021/12/29 07:39:43;;;;;;;0.00;0.00;;;1.30;64.40;;;;;;4983346;28;20033;-86
2021/12/29 07:42:11;;;;;;;0.00;0.00;;;1.30;64.30;;;;;;4987756;28;20410;-85
2021/12/29 07:44:39;;;;;;;0.00;0.00;;;1.40;64.20;;;;;;4977689;28;20395;-86
2021/12/29 07:47:06;;;;;;;0.00;0.00;;;1.40;64.00;;;;;;4986864;28;20019;-85
2021/12/29 07:49:33;;;;;;;0.00;0.00;;;1.40;63.90;;;;;;4994375;28;20041;-83
2021/12/29 07:51:59;;;;;;;0.00;0.00;;;1.40;63.90;;;;;;4977867;28;20372;-82
2021/12/29 07:54:25;;;;;;;0.00;0.00;;;1.50;63.90;;;;;;4995003;28;20038;-85
2021/12/29 07:56:51;;;;;;;0.00;0.00;;;1.40;63.90;;;;;;4996231;28;20047;-84
2021/12/29 07:59:18;;;;;;;0.00;0.00;;;1.50;64.50;;;;;;4979161;28;20034;-85
2021/12/29 08:01:45;;;;;;;0.00;0.00;;;1.60;63.90;;;;;;4978993;28;20033;-86
2021/12/29 08:04:16;;;;;;;0.00;0.00;;;1.60;63.80;;;;;;4995958;28;20031;-83
2021/12/29 08:06:44;;;;;;;0.00;0.00;;;1.60;63.80;;;;;;4997552;28;20031;-86
2021/12/29 08:09:13;;;;;;;0.00;0.00;;;1.70;63.90;;;;;;4978085;28;20041;-85
2021/12/29 08:11:40;;;;;;;0.00;0.00;;;1.70;63.70;;;;;;5001092;28;20033;-89
2021/12/29 08:14:12;;;;;;;0.00;0.00;;;1.70;63.40;;;;;;4998876;28;20027;-87
2021/12/29 08:16:38;;;;;;;0.00;0.00;;;1.80;63.40;;;;;;4994684;28;20118;-86
2021/12/29 08:19:05;;;;;;;0.00;0.00;;;1.80;63.40;;;;;;4994769;28;20034;-88
2021/12/29 08:21:33;;;;;;;0.00;0.00;;;1.80;63.30;;;;;;4978956;28;20129;-87
2021/12/29 08:23:59;;;;;;;0.00;0.00;;;1.90;63.30;;;;;;4976201;28;20474;-84
2021/12/29 08:26:26;;;;;;;0.00;0.00;;;1.90;63.20;;;;;;4994159;28;20085;-84
2021/12/29 08:28:52;;;;;;;0.00;0.00;;;1.90;63.30;;;;;;4995255;28;20018;-84
2021/12/29 08:31:17;;;;;;;0.00;0.00;;;1.90;63.80;;;;;;4975457;28;20085;-85
2021/12/29 08:33:43;;;;;;;0.00;0.00;;;1.90;63.20;;;;;;4992061;28;20066;-85
2021/12/29 08:36:09;;;;;;;0.00;0.00;;;2.00;63.20;;;;;;4993763;28;20037;-84
2021/12/29 08:38:36;;;;;;;0.00;0.00;;;2.00;63.00;;;;;;4995491;28;20098;-84
2021/12/29 08:41:04;;;;;;;0.03;0.00;;;2.10;62.90;;;;;;4995349;28;20034;-84
2021/12/29 08:43:32;;;;;;;0.10;0.10;;;2.10;62.80;;;;;;4978552;28;20433;-85
2021/12/29 08:46:01;;;;;;;0.00;0.00;;;2.10;62.60;;;;;;4995355;28;20069;-85
2021/12/29 08:48:31;;;;;;;0.05;0.00;;;2.10;62.50;;;;;;4994855;28;20030;-84
2021/12/29 08:51:00;;;;;;;0.00;0.00;;;2.00;62.60;;;;;;4995220;28;20026;-84
2021/12/29 08:53:29;;;;;;;0.00;0.00;;;2.00;62.60;;;;;;4994914;28;20041;-83
2021/12/29 08:55:57;;;;;;;0.00;0.00;;;2.00;62.40;;;;;;4994400;28;20132;-84
2021/12/29 08:58:25;;;;;;;0.00;0.00;;;2.00;62.30;;;;;;4995160;28;20109;-82
2021/12/29 09:00:53;;;;;;;0.00;0.00;;;2.00;62.40;;;;;;4994942;28;20097;-86
2021/12/29 09:05:46;;;;;;;0.08;0.00;;;2.00;62.60;;;;;;4955798;28;20054;-82
2021/12/29 09:08:13;;;;;;;0.00;0.00;;;2.10;62.50;;;;;;4978885;28;20086;-85
2021/12/29 09:10:39;;;;;;;0.00;0.00;;;2.20;62.40;;;;;;5001177;28;20035;-85
2021/12/29 09:13:06;;;;;;;0.00;0.00;;;2.20;62.30;;;;;;4977415;28;20022;-85
2021/12/29 09:15:32;;;;;;;0.00;0.00;;;2.30;62.20;;;;;;4966528;28;20034;-86
2021/12/29 09:18:02;;;;;;;0.00;0.00;;;2.30;62.00;;;;;;4969807;28;20560;-83
2021/12/29 09:20:31;;;;;;;0.00;0.00;;;2.30;62.00;;;;;;4975524;28;20095;-83
2021/12/29 09:23:04;;;;;;;0.00;0.00;;;2.40;61.90;;;;;;4988072;28;20035;-84
2021/12/29 09:25:30;;;;;;;0.00;0.00;;;2.40;61.80;;;;;;4965337;28;20035;-85
2021/12/29 09:27:59;;;;;;;0.00;0.00;;;2.40;61.60;;;;;;4974228;28;20030;-85
2021/12/29 09:30:29;;;;;;;0.00;0.00;;;2.30;61.50;;;;;;4955892;28;20050;-84
2021/12/29 09:32:55;;;;;;;0.00;0.00;;;2.30;61.70;;;;;;4955830;28;20019;-85
2021/12/29 09:35:22;;;;;;;0.00;0.00;;;2.30;61.80;;;;;;4955579;28;20023;-85
2021/12/29 09:37:49;;;;;;;0.00;0.00;;;2.40;61.70;;;;;;4963459;28;20508;-85
2021/12/29 09:40:17;;;;;;;0.00;0.00;;;2.30;61.60;;;;;;4969983;28;20035;-84
2021/12/29 09:42:45;;;;;;;0.00;0.00;;;2.30;61.80;;;;;;4967946;28;20031;-85
2021/12/29 09:45:11;;;;;;;0.00;0.00;;;2.40;61.90;;;;;;4978250;28;20235;-84
2021/12/29 09:47:37;;;;;;;0.00;0.00;;;2.40;61.70;;;;;;4978318;28;20519;-84
2021/12/29 09:50:08;;;;;;;0.00;0.00;;;2.40;61.70;;;;;;4976667;28;20402;-86
2021/12/29 09:52:34;;;;;;;0.00;0.00;;;2.40;61.60;;;;;;4993303;28;20039;-85
2021/12/29 09:55:04;;;;;;;0.00;0.00;;;2.40;61.50;;;;;;4977230;28;20039;-84
2021/12/29 09:57:36;;;;;;;0.00;0.00;;;2.50;61.40;;;;;;4966994;28;20067;-87
2021/12/29 10:00:08;;;;;;;0.00;0.00;;;2.40;61.40;;;;;;4977219;28;20553;-84
2021/12/29 10:02:34;;;;;;;0.00;0.00;;;2.40;61.40;;;;;;4977549;28;20381;-84
2021/12/29 10:04:59;;;;;;;0.00;0.00;;;2.40;61.50;;;;;;4965582;28;20050;-84
2021/12/29 10:07:26;;;;;;;0.00;0.00;;;2.40;61.60;;;;;;4989763;28;20023;-84
2021/12/29 10:09:53;;;;;;;0.00;0.00;;;2.40;61.60;;;;;;4969138;28;20062;-84
2021/12/29 10:12:22;;;;;;;0.00;0.00;;;2.40;61.60;;;;;;4966436;28;20019;-83
2021/12/29 10:14:59;;;;;;;0.00;0.00;;;2.40;61.50;;;;;;4963076;28;20031;-83
2021/12/29 10:17:27;;;;;;;0.00;0.00;;;2.40;61.60;;;;;;4970721;28;20050;-84
2021/12/29 10:20:06;;;;;;;0.00;0.00;;;2.40;61.90;;;;;;4975567;28;20501;-87
2021/12/29 10:22:35;;;;;;;0.00;0.00;;;2.40;62.30;;;;;;4983046;28;20046;-86
2021/12/29 10:25:11;;;;;;;0.00;0.00;;;2.50;62.50;;;;;;4968691;28;20031;-86
2021/12/29 10:27:39;;;;;;;0.00;0.00;;;2.50;62.60;;;;;;4972282;28;20106;-88
2021/12/29 10:30:25;;;;;;;0.00;0.00;;;2.50;62.90;;;;;;4970215;28;20039;-86
2021/12/29 10:32:55;;;;;;;0.00;0.00;;;2.40;63.30;;;;;;4988651;28;20026;-88
2021/12/29 10:35:22;;;;;;;0.00;0.00;;;2.40;64.00;;;;;;4975178;28;20098;-88
2021/12/29 10:37:51;;;;;;;0.00;0.00;;;2.40;64.60;;;;;;4978846;28;20031;-88
2021/12/29 10:40:30;;;;;;;0.00;0.00;;;2.40;64.90;;;;;;4976198;28;20069;-83
2021/12/29 10:43:00;;;;;;;0.00;0.00;;;2.30;65.10;;;;;;4977343;28;20039;-81
2021/12/29 10:45:40;;;;;;;0.00;0.00;;;2.30;65.70;;;;;;4977529;28;20034;-82
2021/12/29 10:48:21;;;;;;;0.00;0.00;;;2.30;66.10;;;;;;4989900;28;20085;-82
2021/12/29 10:51:08;;;;;;;0.00;0.00;;;2.30;66.50;;;;;;4976876;28;20030;-81
2021/12/29 10:53:38;;;;;;;0.00;0.00;;;2.40;67.00;;;;;;4972576;28;20018;-86
2021/12/29 10:56:05;;;;;;;0.10;0.05;;;2.40;67.50;;;;;;4964248;28;20031;-84
2021/12/29 10:58:35;;;;;;;0.00;0.00;;;2.30;68.00;;;;;;4985749;28;20390;-83
2021/12/29 11:01:09;;;;;;;0.00;0.00;;;2.30;68.30;;;;;;4977319;28;20069;-83
2021/12/29 11:03:55;;;;;;;0.00;0.00;;;2.30;68.60;;;;;;4978436;28;20031;-82
2021/12/29 11:06:25;;;;;;;0.00;0.00;;;2.30;68.80;;;;;;4959955;28;20082;-82
2021/12/29 11:09:02;;;;;;;0.00;0.00;;;2.30;69.00;;;;;;4963425;28;20101;-88
2021/12/29 11:11:40;;;;;;;0.00;0.00;;;2.20;69.30;;;;;;4977391;28;20026;-82
2021/12/29 11:14:33;;;;;;;0.00;0.00;;;2.30;69.80;;;;;;4969473;28;20574;-84
2021/12/29 11:17:23;;;;;;;0.00;0.00;;;2.30;69.80;;;;;;4977017;28;20062;-84
2021/12/29 11:19:59;;;;;;;0.00;0.00;;;2.30;70.00;;;;;;4966606;28;20039;-85
2021/12/29 11:22:29;;;;;;;0.10;0.00;;;2.30;70.60;;;;;;4965083;28;20091;-84
2021/12/29 11:25:00;;;;;;;0.10;0.00;;;2.30;70.90;;;;;;4964181;28;20031;-84
2021/12/29 11:27:29;;;;;;;0.00;0.00;;;2.30;70.90;;;;;;4960979;28;20118;-84
2021/12/29 11:30:03;;;;;;;0.00;0.00;;;2.20;70.90;;;;;;4963254;28;20063;-83
2021/12/29 11:32:36;;;;;;;0.00;0.00;;;2.20;70.90;;;;;;4957457;28;20106;-83
2021/12/29 11:35:09;;;;;;;0.00;0.00;;;2.20;71.20;;;;;;4955625;29;20462;-83
2021/12/29 11:37:56;;;;;;;0.00;0.00;;;2.20;71.40;;;;;;4955545;28;20159;-85
2021/12/29 11:40:26;;;;;;;0.00;0.00;;;2.20;71.50;;;;;;4956589;28;20035;-82
2021/12/29 11:42:55;;;;;;;0.00;0.00;;;2.20;71.90;;;;;;4978574;28;20133;-86
2021/12/29 11:45:22;;;;;;;0.00;0.00;;;2.20;71.80;;;;;;4966718;28;20030;-85
2021/12/29 11:47:49;;;;;;;0.00;0.00;;;2.20;71.80;;;;;;4976081;28;20053;-84
2021/12/29 11:50:31;;;;;;;0.00;0.00;;;2.20;72.00;;;;;;4973434;28;20039;-91
2021/12/29 11:53:17;;;;;;;0.08;0.08;;;2.20;72.00;;;;;;4959943;28;20038;-85
2021/12/29 11:56:04;;;;;;;0.00;0.00;;;2.20;72.10;;;;;;4955667;28;20046;-85
2021/12/29 12:01:11;;;;;;;0.00;0.00;;;2.30;72.60;;;;;;4967544;28;20570;-87
2021/12/29 12:03:47;;;;;;;0.00;0.00;;;2.30;72.90;;;;;;4973231;28;20070;-84
2021/12/29 12:06:30;;;;;;;0.00;0.00;;;2.30;72.90;;;;;;4991106;28;20374;-86
2021/12/29 12:09:18;;;;;;;0.00;0.00;;;2.40;72.70;;;;;;4994601;28;20516;-86
2021/12/29 12:11:47;;;;;;;0.00;0.00;;;2.40;72.50;;;;;;4995280;28;20030;-88
2021/12/29 12:14:21;;;;;;;0.00;0.00;;;2.40;72.80;;;;;;4993891;28;20073;-85
2021/12/29 12:16:50;;;;;;;0.00;0.00;;;2.30;72.80;;;;;;4993689;28;20467;-85
2021/12/29 12:19:20;;;;;;;0.00;0.00;;;2.30;70.90;;;;;;4995310;28;20252;-83
2021/12/29 12:21:49;;;;;;;0.00;0.00;;;2.20;70.30;;;;;;4994335;28;20474;-84
2021/12/29 12:24:19;;;;;;;0.00;0.00;;;2.20;71.20;;;;;;4995239;28;20463;-82
2021/12/29 12:26:55;;;;;;;0.00;0.00;;;2.20;71.80;;;;;;4994833;28;20026;-83
2021/12/29 12:29:22;;;;;;;0.00;0.00;;;2.20;72.00;;;;;;4994882;28;20030;-85
2021/12/29 12:32:06;;;;;;;0.00;0.00;;;2.20;72.20;;;;;;4994907;28;20026;-83
2021/12/29 12:34:52;;;;;;;0.00;0.00;;;2.20;72.20;;;;;;5009348;28;20110;-85
2021/12/29 12:37:40;;;;;;;0.00;0.00;;;2.20;70.50;;;;;;4994127;28;20785;-84
2021/12/29 12:40:22;;;;;;;0.00;0.00;;;2.20;70.20;;;;;;4994655;28;20130;-82
2021/12/29 12:42:58;;;;;;;0.00;0.00;;;2.20;71.10;;;;;;4995600;28;20118;-82
2021/12/29 12:45:30;;;;;;;0.10;0.10;;;2.10;71.50;;;;;;4995118;28;20053;-85
2021/12/29 12:48:23;;;;;;;0.00;0.00;;;2.10;71.80;;;;;;4994607;28;20097;-85
2021/12/29 12:50:53;;;;;;;0.00;0.00;;;2.10;71.90;;;;;;4994948;28;20068;-84
2021/12/29 12:53:36;;;;;;;0.00;0.00;;;2.10;72.40;;;;;;4993511;28;20469;-85
2021/12/29 12:56:06;;;;;;;0.00;0.00;;;2.10;72.40;;;;;;4994071;28;20114;-84
2021/12/29 12:58:45;;;;;;;0.00;0.00;;;2.00;72.50;;;;;;4994181;28;20331;-84
2021/12/29 13:01:18;;;;;;;0.00;0.00;;;2.00;72.80;;;;;;4994412;28;20465;-85
2021/12/29 13:03:44;;;;;;;0.10;0.10;;;2.00;73.00;;;;;;5008395;28;20041;-84
2021/12/29 13:06:16;;;;;;;0.00;0.00;;;2.00;73.10;;;;;;4994386;28;20036;-84
2021/12/29 13:08:45;;;;;;;0.03;0.03;;;1.90;73.10;;;;;;4994277;28;20057;-85
2021/12/29 13:11:16;;;;;;;0.00;0.00;;;2.00;73.20;;;;;;4994044;28;20034;-85
2021/12/29 13:13:46;;;;;;;0.00;0.00;;;2.00;72.90;;;;;;4993157;28;20029;-85
2021/12/29 13:16:15;;;;;;;0.00;0.00;;;1.90;73.00;;;;;;4994619;28;20058;-85